This is the latest recevied weather packets stored in our database for station/object 9M2ABD-1. If no packets are shown the sender has not sent any weather packets the latest 10 day(s).
| Time | Temp. | Humidity | Pressure | Rain* | Wind** | Luminosity | Snow |
|---|---|---|---|---|---|---|---|
| 1788411926 | 33.33° C | 55% | 1011.9 hPa | - | - | - | - |
| 1788410726 | 33.33° C | 56% | 1012.2 hPa | - | - | - | - |
| 1788409526 | 33.33° C | 56% | 1012.4 hPa | - | - | - | - |
| 1788408325 | 32.78° C | 56% | 1012.7 hPa | - | - | - | - |
| 1788407125 | 32.78° C | 58% | 1012.9 hPa | - | - | - | - |
| 1788405925 | 32.22° C | 62% | 1013.2 hPa | - | - | - | - |
| 1788404725 | 32.22° C | 63% | 1013.4 hPa | - | - | - | - |
| 1788403525 | 31.67° C | 63% | 1013.3 hPa | - | - | - | - |
| 1788402325 | 31.67° C | 65% | 1013.4 hPa | - | - | - | - |
| 1788401170 | 31.67° C | 65% | 1013.5 hPa | - | - | - | - |
| 1788401125 | 31.67° C | 65% | 1013.5 hPa | - | - | - | - |
| 1788399925 | 31.67° C | 66% | 1013.3 hPa | - | - | - | - |
| 1788398725 | 31.11° C | 68% | 1013.2 hPa | - | - | - | - |
| 1788397525 | 31.11° C | 70% | 1013.1 hPa | - | - | - | - |
| 1788396325 | 31.11° C | 71% | 1013 hPa | - | - | - | - |
| 1788395125 | 30.56° C | 70% | 1012.8 hPa | - | - | - | - |
| 1788393925 | 30.56° C | 69% | 1012.7 hPa | - | - | - | - |
| 1788392725 | 31.11° C | 67% | 1012.2 hPa | - | - | - | - |
| 1788391525 | 31.11° C | 67% | 1012.1 hPa | - | - | - | - |
| 1788390325 | 31.11° C | 66% | 1012 hPa | - | - | - | - |
| 1788389124 | 31.11° C | 65% | 1011.9 hPa | - | - | - | - |
| 1788387924 | 31.11° C | 65% | 1011.5 hPa | - | - | - | - |
| 1788386724 | 31.11° C | 65% | 1011.2 hPa | - | - | - | - |
| 1788384328 | 31.11° C | 64% | 1010.9 hPa | - | - | - | - |
| 1788383128 | 31.11° C | 64% | 1010.8 hPa | - | - | - | - |
* Rain since midnight (hover to see other rain measurements)
** Current wind speed in m/s (hover to see current wind gust speed)